createdAt,value
2019-04-14T00:00:49.631Z,99.99
2019-04-14T00:01:50.097Z,99.99
2019-04-14T00:02:49.489Z,99.99
2019-04-14T00:03:50.074Z,99.99
2019-04-14T00:04:49.250Z,99.99
2019-04-14T00:05:49.725Z,99.99
2019-04-14T00:06:49.069Z,99.99
2019-04-14T00:07:49.548Z,99.99
2019-04-14T00:08:50.064Z,99.99
2019-04-14T00:09:49.825Z,99.99
2019-04-14T00:10:48.718Z,99.99
2019-04-14T00:11:48.736Z,99.99
2019-04-14T00:12:49.256Z,99.99
2019-04-14T00:13:48.450Z,99.99
2019-04-14T00:14:49.114Z,99.99
2019-04-14T00:15:50.452Z,99.99
2019-04-14T00:16:48.961Z,99.99
2019-04-14T00:17:48.106Z,99.99
2019-04-14T00:18:49.091Z,99.99
2019-04-14T00:19:47.940Z,99.99
2019-04-14T00:20:49.034Z,99.99
2019-04-14T00:21:47.759Z,99.99
2019-04-14T00:22:48.912Z,99.99
2019-04-14T00:23:47.888Z,99.99
2019-04-14T00:24:48.801Z,99.99
2019-04-14T00:25:47.693Z,99.99
2019-04-14T00:26:47.312Z,99.99
2019-04-14T00:27:47.583Z,99.99
2019-04-14T00:28:47.220Z,99.99
2019-04-14T00:29:47.950Z,99.99
2019-04-14T00:30:47.068Z,99.99
2019-04-14T00:31:47.657Z,99.99
2019-04-14T00:32:53.796Z,99.99
2019-04-14T00:33:47.561Z,99.99
2019-04-14T00:34:46.615Z,99.99
2019-04-14T00:35:47.174Z,99.99
2019-04-14T00:36:46.555Z,99.99
2019-04-14T00:37:46.660Z,99.99
2019-04-14T00:38:46.261Z,99.99
2019-04-14T00:39:46.594Z,99.99
2019-04-14T00:40:46.203Z,99.99
2019-04-14T00:41:51.833Z,99.99
2019-04-14T00:42:45.913Z,99.99
2019-04-14T00:43:48.492Z,99.99
2019-04-14T00:44:45.737Z,99.99
2019-04-14T00:45:51.200Z,99.99
2019-04-14T00:46:45.575Z,99.99
2019-04-14T00:47:54.761Z,99.99
2019-04-14T00:48:45.388Z,99.99
2019-04-14T00:49:46.266Z,99.99
2019-04-14T00:50:45.291Z,99.99
2019-04-14T00:51:46.121Z,99.99
2019-04-14T00:52:45.827Z,99.99
2019-04-14T00:53:45.032Z,99.99
2019-04-14T00:54:45.646Z,99.99
2019-04-14T00:55:44.796Z,99.99
2019-04-14T00:56:45.479Z,99.99
2019-04-14T00:57:44.597Z,99.99
2019-04-14T00:58:45.370Z,99.99
2019-04-14T00:59:44.459Z,99.99
2019-04-14T01:00:45.162Z,99.99
2019-04-14T01:01:44.266Z,99.99
2019-04-14T01:02:45.033Z,99.99
2019-04-14T01:03:44.182Z,99.99
2019-04-14T01:04:44.792Z,99.99
2019-04-14T01:05:43.918Z,99.99
2019-04-14T01:06:44.831Z,99.99
2019-04-14T01:07:43.718Z,99.99
2019-04-14T01:08:44.557Z,99.99
2019-04-14T01:09:44.246Z,99.99
2019-04-14T01:10:43.466Z,99.99
2019-04-14T01:11:44.336Z,99.99
2019-04-14T01:12:43.356Z,99.99
2019-04-14T01:13:44.003Z,99.99
2019-04-14T01:14:43.181Z,99.99
2019-04-14T01:15:52.582Z,99.99
2019-04-14T01:16:43.027Z,99.99
2019-04-14T01:17:43.849Z,99.99
2019-04-14T01:18:45.030Z,99.99
2019-04-14T01:19:43.804Z,99.99
2019-04-14T01:20:42.863Z,99.99
2019-04-14T01:21:43.515Z,99.99
2019-04-14T01:22:42.525Z,99.99
2019-04-14T01:23:43.448Z,99.99
2019-04-14T01:24:42.511Z,99.99
2019-04-14T01:25:43.151Z,99.99
2019-04-14T01:26:42.141Z,99.99
2019-04-14T01:27:42.926Z,99.99
2019-04-14T01:28:41.951Z,99.99
2019-04-14T01:29:42.735Z,99.99
2019-04-14T01:30:41.698Z,99.99
2019-04-14T01:31:42.513Z,99.99
2019-04-14T01:32:41.573Z,99.99
2019-04-14T01:33:42.293Z,99.99
2019-04-14T01:34:41.423Z,99.99
2019-04-14T01:35:42.119Z,99.99
2019-04-14T01:36:41.192Z,99.99
2019-04-14T01:37:41.913Z,99.99
2019-04-14T01:38:40.996Z,99.99
2019-04-14T01:39:41.438Z,99.99
2019-04-14T01:40:48.763Z,99.99
2019-04-14T01:41:41.107Z,99.99
2019-04-14T01:42:41.975Z,99.99
2019-04-14T01:43:40.650Z,99.99
2019-04-14T01:44:41.619Z,99.99
2019-04-14T01:45:40.475Z,99.99
2019-04-14T01:46:41.252Z,99.99
2019-04-14T01:47:40.206Z,99.99
2019-04-14T01:48:41.034Z,99.99
2019-04-14T01:49:40.031Z,99.99
2019-04-14T01:50:40.940Z,99.99
2019-04-14T01:51:39.934Z,99.99
2019-04-14T01:52:40.630Z,99.99
2019-04-14T01:53:40.092Z,99.99
2019-04-14T01:54:40.748Z,99.99
2019-04-14T01:55:39.532Z,99.99
2019-04-14T01:56:40.511Z,99.99
2019-04-14T01:57:39.328Z,99.99
2019-04-14T01:58:40.385Z,99.99
2019-04-14T01:59:39.195Z,99.99
2019-04-14T02:00:40.232Z,99.99
2019-04-14T02:01:39.031Z,99.99
2019-04-14T02:02:40.011Z,99.99
2019-04-14T02:03:38.827Z,99.99
2019-04-14T02:04:39.815Z,99.99
2019-04-14T02:05:38.638Z,99.99
2019-04-14T02:06:39.782Z,99.99
2019-04-14T02:07:38.454Z,99.99
2019-04-14T02:08:39.346Z,99.99
2019-04-14T02:09:38.273Z,99.99
2019-04-14T02:10:39.272Z,99.99
2019-04-14T02:11:38.131Z,99.99
2019-04-14T02:12:38.774Z,99.99
2019-04-14T02:13:38.012Z,99.99
2019-04-14T02:14:38.679Z,99.99
2019-04-14T02:15:37.754Z,99.99
2019-04-14T02:16:44.357Z,99.99
2019-04-14T02:17:37.570Z,99.99
2019-04-14T02:18:38.431Z,99.99
2019-04-14T02:19:37.438Z,99.99
2019-04-14T02:20:38.176Z,99.99
2019-04-14T02:21:37.279Z,99.99
2019-04-14T02:22:37.625Z,99.99
2019-04-14T02:23:37.161Z,99.99
2019-04-14T02:24:37.469Z,99.99
2019-04-14T02:25:38.112Z,99.99
2019-04-14T02:26:37.835Z,99.99
2019-04-14T02:27:36.693Z,99.99
2019-04-14T02:28:37.563Z,99.99
2019-04-14T02:29:36.586Z,99.99
2019-04-14T02:30:44.408Z,99.99
2019-04-14T02:32:01.694Z,99.99
2019-04-14T02:33:03.503Z,99.99
2019-04-14T02:33:58.786Z,99.99
2019-04-14T02:35:08.564Z,99.99
2019-04-14T02:36:05.749Z,99.99
2019-04-14T02:37:04.687Z,99.99
2019-04-14T02:38:12.327Z,99.99
2019-04-14T02:40:04.052Z,99.99
2019-04-14T02:41:03.011Z,99.99
2019-04-14T02:42:07.015Z,99.99
2019-04-14T02:43:03.889Z,99.99
2019-04-14T02:44:59.834Z,99.99
2019-04-14T02:46:03.510Z,99.99
2019-04-14T02:47:11.602Z,99.99
2019-04-14T02:48:20.305Z,99.99
2019-04-14T02:49:12.482Z,99.99
2019-04-14T02:50:08.789Z,99.99
2019-04-14T02:51:04.271Z,99.99
2019-04-14T02:53:01.583Z,99.99
2019-04-14T02:54:59.923Z,99.99
2019-04-14T02:57:03.530Z,99.99
2019-04-14T02:58:01.780Z,99.99
2019-04-14T02:59:01.768Z,99.99
2019-04-14T02:59:58.764Z,99.99
2019-04-14T03:02:20.102Z,99.99
2019-04-14T03:02:56.287Z,99.99
2019-04-14T03:04:01.634Z,99.99
2019-04-14T03:05:10.023Z,99.99
2019-04-14T03:06:01.845Z,99.99
2019-04-14T03:07:05.190Z,99.99
2019-04-14T03:08:00.568Z,99.99
2019-04-14T03:09:13.590Z,99.99
2019-04-14T03:09:58.633Z,99.99
2019-04-14T03:11:01.202Z,99.99
2019-04-14T03:12:19.211Z,99.99
2019-04-14T03:13:13.135Z,99.99
2019-04-14T03:13:58.565Z,99.99
2019-04-14T03:16:09.109Z,99.99
2019-04-14T03:18:20.367Z,99.99
2019-04-14T03:20:09.400Z,99.99
2019-04-14T03:20:55.695Z,99.99
2019-04-14T03:22:05.094Z,99.99
2019-04-14T03:23:14.310Z,99.99
2019-04-14T03:24:01.259Z,99.99
2019-04-14T03:24:43.596Z,99.99
2019-04-14T03:25:49.247Z,99.99
2019-04-14T03:26:56.140Z,99.99
2019-04-14T03:28:12.219Z,99.99
2019-04-14T03:28:51.438Z,99.99
2019-04-14T03:29:58.347Z,99.99
2019-04-14T03:31:08.592Z,99.99
2019-04-14T03:33:26.925Z,99.99
2019-04-14T03:35:09.799Z,99.99
2019-04-14T03:36:20.971Z,99.99
2019-04-14T03:38:58.934Z,99.99
2019-04-14T03:39:55.207Z,99.99
2019-04-14T03:41:03.817Z,99.99
2019-04-14T03:41:56.706Z,99.99
2019-04-14T03:43:04.075Z,99.99
2019-04-14T03:43:48.412Z,99.99
2019-04-14T03:45:14.331Z,99.99
2019-04-14T03:46:58.991Z,99.99
2019-04-14T03:48:22.424Z,99.99
2019-04-14T03:49:01.692Z,99.99
2019-04-14T03:49:56.378Z,99.99
2019-04-14T03:51:00.434Z,99.99
2019-04-14T03:52:27.539Z,99.99
2019-04-14T03:52:56.129Z,99.99
2019-04-14T03:53:53.499Z,99.99
2019-04-14T03:54:44.057Z,99.99
2019-04-14T03:55:37.038Z,99.99
2019-04-14T03:56:29.187Z,99.99
2019-04-14T03:57:30.071Z,99.99
2019-04-14T03:58:29.267Z,99.99
2019-04-14T03:59:28.632Z,99.99
2019-04-14T04:00:29.187Z,99.99
2019-04-14T04:01:28.446Z,99.99
2019-04-14T04:02:29.429Z,99.99
2019-04-14T04:03:28.270Z,99.99
2019-04-14T04:04:29.347Z,99.99
2019-04-14T04:05:28.095Z,99.99
2019-04-14T04:06:29.187Z,99.99
2019-04-14T04:07:27.954Z,99.99
2019-04-14T04:08:29.029Z,99.99
2019-04-14T04:09:27.892Z,99.99
2019-04-14T04:10:27.671Z,99.99
2019-04-14T04:11:28.039Z,99.99
2019-04-14T04:12:27.598Z,99.99
2019-04-14T04:13:28.076Z,99.99
2019-04-14T04:14:27.339Z,99.99
2019-04-14T04:15:27.853Z,99.99
2019-04-14T04:16:27.130Z,99.99
2019-04-14T04:17:27.621Z,99.99
2019-04-14T04:18:26.994Z,99.99
2019-04-14T04:19:27.304Z,99.99
2019-04-14T04:20:28.540Z,99.99
2019-04-14T04:21:26.975Z,99.99
2019-04-14T04:22:26.609Z,99.99
2019-04-14T04:23:27.121Z,99.99
2019-04-14T04:24:29.100Z,99.99
2019-04-14T04:25:26.846Z,99.99
2019-04-14T04:26:26.336Z,99.99
2019-04-14T04:27:26.557Z,99.99
2019-04-14T04:28:26.147Z,99.99
2019-04-14T04:29:26.585Z,99.99
2019-04-14T04:30:25.956Z,99.99
2019-04-14T04:31:26.416Z,99.99
2019-04-14T04:32:25.730Z,99.99
2019-04-14T04:33:26.380Z,99.99
2019-04-14T04:34:25.552Z,99.99
2019-04-14T04:35:26.005Z,99.99
2019-04-14T04:36:25.494Z,99.99
2019-04-14T04:37:25.693Z,99.99
2019-04-14T04:38:25.213Z,99.99
2019-04-14T04:39:25.753Z,99.99
2019-04-14T04:40:25.043Z,99.99
2019-04-14T04:41:25.357Z,99.99
2019-04-14T04:42:35.042Z,99.99
2019-04-14T04:43:25.492Z,99.99
2019-04-14T04:44:24.863Z,99.99
2019-04-14T04:45:25.681Z,99.99
2019-04-14T04:46:24.507Z,99.99
2019-04-14T04:47:25.223Z,99.99
2019-04-14T04:48:31.404Z,99.99
2019-04-14T04:49:27.357Z,99.99
2019-04-14T04:50:24.177Z,99.99
2019-04-14T04:51:24.599Z,99.99
2019-04-14T04:52:23.989Z,99.99
2019-04-14T04:53:24.465Z,99.99
2019-04-14T04:54:23.812Z,99.99
2019-04-14T04:55:24.168Z,99.99
2019-04-14T04:56:23.640Z,99.99
2019-04-14T04:57:24.211Z,99.99
2019-04-14T04:58:24.104Z,99.99
2019-04-14T04:59:23.515Z,99.99
2019-04-14T05:00:24.385Z,99.99
2019-04-14T05:01:23.301Z,99.99
2019-04-14T05:02:23.110Z,99.99
2019-04-14T05:03:23.371Z,99.99
2019-04-14T05:04:22.945Z,99.99
2019-04-14T05:05:27.429Z,99.99
2019-04-14T05:06:23.770Z,99.99
2019-04-14T05:07:23.123Z,99.99
2019-04-14T05:08:22.586Z,99.99
2019-04-14T05:09:23.072Z,99.99
2019-04-14T05:10:22.431Z,99.99
2019-04-14T05:11:23.048Z,99.99
2019-04-14T05:12:22.245Z,99.99
2019-04-14T05:13:22.671Z,99.99
2019-04-14T05:14:22.064Z,99.99
2019-04-14T05:15:22.653Z,99.99
2019-04-14T05:16:21.890Z,99.99
2019-04-14T05:17:23.392Z,99.99
2019-04-14T05:18:22.213Z,99.99
2019-04-14T05:19:27.697Z,99.99
2019-04-14T05:20:22.457Z,99.99
2019-04-14T05:21:21.516Z,99.99
2019-04-14T05:22:22.388Z,99.99
2019-04-14T05:23:21.439Z,99.99
2019-04-14T05:24:22.218Z,99.99
2019-04-14T05:25:21.654Z,99.99
2019-04-14T05:26:22.057Z,99.99
2019-04-14T05:27:21.119Z,99.99
2019-04-14T05:28:21.957Z,99.99
2019-04-14T05:29:21.107Z,99.99
2019-04-14T05:30:21.764Z,99.99
2019-04-14T05:31:20.767Z,99.99
2019-04-14T05:32:21.528Z,99.99
2019-04-14T05:33:20.729Z,99.99
2019-04-14T05:34:21.367Z,99.99
2019-04-14T05:35:20.608Z,99.99
2019-04-14T05:36:21.219Z,99.99
2019-04-14T05:37:20.889Z,99.99
2019-04-14T05:38:21.133Z,99.99
2019-04-14T05:39:20.012Z,99.99
2019-04-14T05:40:20.943Z,99.99
2019-04-14T05:41:20.128Z,99.99
2019-04-14T05:42:24.041Z,99.99
2019-04-14T05:43:30.333Z,99.99
2019-04-14T05:44:20.675Z,99.99
2019-04-14T05:45:19.872Z,99.99
2019-04-14T05:46:20.445Z,99.99
2019-04-14T05:47:19.698Z,99.99
2019-04-14T05:48:20.325Z,99.99
2019-04-14T05:49:32.900Z,99.99
2019-04-14T05:50:20.199Z,99.99
2019-04-14T05:51:23.612Z,99.99
2019-04-14T05:52:18.776Z,99.99
2019-04-14T05:53:19.640Z,99.99
2019-04-14T05:54:18.653Z,99.99
2019-04-14T05:55:19.786Z,99.99
2019-04-14T05:56:18.665Z,99.99
2019-04-14T05:57:18.342Z,99.99
2019-04-14T05:58:19.289Z,99.99
2019-04-14T05:59:18.171Z,99.99
2019-04-14T06:00:19.059Z,99.99
2019-04-14T06:01:18.828Z,99.99
2019-04-14T06:02:18.085Z,99.99
2019-04-14T06:03:19.076Z,99.99
2019-04-14T06:04:17.879Z,99.99
2019-04-14T06:05:18.873Z,99.99
2019-04-14T06:06:17.779Z,99.99
2019-04-14T06:07:17.552Z,99.99
2019-04-14T06:08:18.221Z,99.99
2019-04-14T06:09:17.343Z,99.99
2019-04-14T06:10:17.363Z,99.99
2019-04-14T06:11:17.160Z,99.99
2019-04-14T06:12:17.158Z,99.99
2019-04-14T06:13:17.113Z,99.99
2019-04-14T06:14:16.886Z,99.99
2019-04-14T06:15:17.875Z,99.99
2019-04-14T06:16:16.869Z,99.99
2019-04-14T06:17:16.682Z,99.99
2019-04-14T06:18:16.765Z,99.99
2019-04-14T06:19:16.462Z,99.99
2019-04-14T06:20:16.375Z,99.99
2019-04-14T06:21:16.516Z,99.99
2019-04-14T06:22:16.723Z,99.99
2019-04-14T06:23:16.131Z,99.99
2019-04-14T06:24:16.192Z,99.99
2019-04-14T06:25:15.973Z,99.99
2019-04-14T06:26:20.336Z,99.99
2019-04-14T06:27:15.785Z,99.99
2019-04-14T06:28:15.809Z,99.99
2019-04-14T06:29:15.613Z,99.99
2019-04-14T06:30:15.618Z,99.99
2019-04-14T06:31:15.454Z,99.99
2019-04-14T06:32:18.838Z,99.99
2019-04-14T06:33:15.274Z,99.99
2019-04-14T06:34:15.187Z,99.99
2019-04-14T06:35:15.144Z,99.99
2019-04-14T06:36:15.021Z,99.99
2019-04-14T06:37:14.954Z,99.99
2019-04-14T06:38:14.962Z,99.99
2019-04-14T06:39:14.770Z,99.99
2019-04-14T06:40:14.681Z,99.99
2019-04-14T06:41:14.670Z,99.99
2019-04-14T06:42:14.524Z,99.99
2019-04-14T06:43:14.433Z,99.99
2019-04-14T06:44:21.347Z,99.99
2019-04-14T06:45:14.259Z,99.99
2019-04-14T06:46:14.171Z,99.99
2019-04-14T06:47:14.136Z,99.99
2019-04-14T06:48:14.002Z,99.99
2019-04-14T06:49:13.916Z,99.99
2019-04-14T06:50:22.823Z,99.99
2019-04-14T06:51:13.748Z,99.99
2019-04-14T06:52:13.685Z,99.99
2019-04-14T06:53:13.627Z,99.99
2019-04-14T06:54:13.498Z,99.99
2019-04-14T06:55:13.415Z,99.99
2019-04-14T06:56:13.344Z,99.99
2019-04-14T06:57:13.273Z,99.99
2019-04-14T06:58:13.161Z,99.99
2019-04-14T06:59:13.166Z,99.99
2019-04-14T07:00:12.994Z,99.99
2019-04-14T07:01:12.914Z,99.99
2019-04-14T07:02:12.907Z,99.99
2019-04-14T07:03:12.747Z,99.99
2019-04-14T07:04:12.660Z,99.99
2019-04-14T07:05:12.687Z,99.99
2019-04-14T07:06:12.500Z,99.99
2019-04-14T07:07:12.429Z,99.99
2019-04-14T07:08:14.344Z,99.99
2019-04-14T07:09:12.243Z,99.99
2019-04-14T07:10:12.176Z,99.99
2019-04-14T07:11:12.086Z,99.99
2019-04-14T07:12:12.095Z,99.99
2019-04-14T07:13:13.993Z,99.99
2019-04-14T07:14:11.829Z,99.99
2019-04-14T07:15:11.832Z,99.99
2019-04-14T07:16:11.674Z,99.99
2019-04-14T07:17:11.602Z,99.99
2019-04-14T07:18:12.126Z,99.99
2019-04-14T07:19:11.413Z,99.99
2019-04-14T07:20:11.331Z,99.99
2019-04-14T07:21:12.284Z,99.99
2019-04-14T07:22:11.186Z,99.99
2019-04-14T07:23:11.109Z,99.99
2019-04-14T07:24:11.000Z,99.44
2019-04-14T07:25:10.987Z,99.16
2019-04-14T07:26:10.831Z,99.44
2019-04-14T07:27:10.765Z,99.40
2019-04-14T07:28:10.668Z,98.07
2019-04-14T07:29:10.600Z,97.50
2019-04-14T07:30:10.501Z,96.65
2019-04-14T07:31:10.478Z,96.22
2019-04-14T07:32:10.362Z,96.50
2019-04-14T07:33:10.251Z,96.98
2019-04-14T07:34:10.172Z,96.88
2019-04-14T07:35:10.129Z,97.36
2019-04-14T07:36:10.010Z,97.64
2019-04-14T07:37:09.969Z,97.45
2019-04-14T07:38:09.845Z,96.69
2019-04-14T07:39:09.851Z,96.22
2019-04-14T07:40:09.686Z,96.98
2019-04-14T07:41:09.661Z,96.88
2019-04-14T07:42:09.534Z,97.55
2019-04-14T07:43:09.447Z,97.55
2019-04-14T07:44:09.355Z,97.41
2019-04-14T07:45:09.334Z,96.17
2019-04-14T07:46:09.191Z,96.45
2019-04-14T07:47:09.129Z,95.22
2019-04-14T07:48:09.031Z,94.98
2019-04-14T07:49:09.033Z,95.46
2019-04-14T07:50:14.855Z,96.55
2019-04-14T07:51:08.783Z,96.84
2019-04-14T07:52:08.739Z,95.17
2019-04-14T07:53:08.623Z,94.37
2019-04-14T07:54:08.545Z,94.08
2019-04-14T07:55:08.469Z,93.41
2019-04-14T07:56:08.466Z,93.55
2019-04-14T07:57:08.431Z,92.56
2019-04-14T07:58:08.214Z,93.04
2019-04-14T07:59:08.136Z,92.46
2019-04-14T08:00:08.166Z,92.46
2019-04-14T08:01:07.973Z,92.13
2019-04-14T08:02:07.907Z,91.42
2019-04-14T08:03:07.886Z,91.89
2019-04-14T08:04:07.733Z,91.80
2019-04-14T08:05:07.701Z,92.27
2019-04-14T08:06:07.683Z,92.37
2019-04-14T08:07:07.503Z,92.94
2019-04-14T08:08:07.457Z,93.13
2019-04-14T08:09:07.347Z,93.89
2019-04-14T08:10:07.254Z,93.94
2019-04-14T08:11:07.182Z,91.75
2019-04-14T08:12:07.099Z,90.61
2019-04-14T08:13:07.017Z,89.94
2019-04-14T08:14:07.020Z,90.89
2019-04-14T08:15:06.842Z,90.80
2019-04-14T08:16:06.761Z,91.66
2019-04-14T08:17:06.737Z,91.56
2019-04-14T08:18:06.611Z,91.37
2019-04-14T08:19:06.519Z,92.32
2019-04-14T08:20:06.567Z,91.66
2019-04-14T08:21:06.357Z,92.89
2019-04-14T08:22:06.275Z,91.85
2019-04-14T08:23:06.215Z,91.56
2019-04-14T08:24:06.117Z,91.37
2019-04-14T08:25:06.052Z,91.51
2019-04-14T08:26:05.975Z,90.56
2019-04-14T08:27:05.878Z,89.85
2019-04-14T08:28:06.853Z,90.04
2019-04-14T08:29:05.730Z,89.85
2019-04-14T08:30:05.638Z,91.61
2019-04-14T08:31:05.572Z,90.28
2019-04-14T08:32:05.509Z,89.84
2019-04-14T08:33:05.453Z,89.32
2019-04-14T08:34:05.315Z,88.66
2019-04-14T08:35:05.233Z,89.14
2019-04-14T08:36:05.228Z,87.94
2019-04-14T08:37:05.075Z,87.85
2019-04-14T08:38:05.004Z,87.65
2019-04-14T08:39:04.941Z,87.37
2019-04-14T08:40:04.844Z,86.09
2019-04-14T08:41:04.751Z,86.61
2019-04-14T08:42:04.755Z,85.94
2019-04-14T08:43:04.604Z,87.27
2019-04-14T08:44:04.510Z,86.80
2019-04-14T08:45:04.469Z,86.13
2019-04-14T08:46:04.357Z,86.85
2019-04-14T08:47:04.271Z,87.18
2019-04-14T08:48:04.327Z,86.51
2019-04-14T08:49:04.119Z,86.04
2019-04-14T08:50:04.036Z,85.47
2019-04-14T08:51:03.962Z,85.47
2019-04-14T08:52:03.873Z,84.76
2019-04-14T08:53:03.812Z,85.08
2019-04-14T08:54:03.712Z,85.08
2019-04-14T08:55:03.637Z,85.18
2019-04-14T08:56:03.552Z,84.33
2019-04-14T08:57:03.488Z,84.56
2019-04-14T08:58:04.303Z,82.90
2019-04-14T08:59:03.324Z,83.94
2019-04-14T09:00:03.235Z,83.65
2019-04-14T09:01:03.155Z,84.89
2019-04-14T09:02:03.080Z,85.08
2019-04-14T09:03:03.012Z,84.89
2019-04-14T09:04:02.921Z,84.84
2019-04-14T09:05:02.847Z,84.13
2019-04-14T09:06:02.756Z,84.23
2019-04-14T09:07:02.675Z,84.42
2019-04-14T09:08:02.620Z,83.94
2019-04-14T09:09:02.520Z,83.37
2019-04-14T09:10:02.436Z,84.52
2019-04-14T09:11:02.364Z,84.19
2019-04-14T09:12:14.569Z,85.80
2019-04-14T09:13:02.213Z,84.89
2019-04-14T09:14:02.131Z,85.18
2019-04-14T09:15:02.039Z,84.75
2019-04-14T09:16:01.959Z,83.32
2019-04-14T09:17:01.936Z,83.17
2019-04-14T09:18:01.818Z,81.60
2019-04-14T09:19:07.489Z,83.26
2019-04-14T09:20:01.660Z,80.88
2019-04-14T09:21:01.566Z,80.22
2019-04-14T09:22:01.485Z,78.12
2019-04-14T09:23:01.415Z,78.08
2019-04-14T09:24:01.327Z,79.46
2019-04-14T09:25:01.242Z,79.17
2019-04-14T09:26:01.162Z,78.41
2019-04-14T09:27:01.087Z,78.59
2019-04-14T09:28:01.021Z,78.22
2019-04-14T09:29:00.984Z,78.50
2019-04-14T09:30:00.850Z,79.07
2019-04-14T09:31:00.772Z,78.27
2019-04-14T09:32:00.691Z,78.17
2019-04-14T09:33:00.631Z,78.98
2019-04-14T09:34:00.606Z,78.22
2019-04-14T09:35:00.450Z,77.26
2019-04-14T09:36:00.373Z,76.40
2019-04-14T09:37:00.300Z,76.75
2019-04-14T09:38:00.208Z,77.17
2019-04-14T09:39:00.149Z,76.79
2019-04-14T09:40:00.058Z,77.07
2019-04-14T09:40:59.975Z,75.64
2019-04-14T09:41:59.891Z,75.07
2019-04-14T09:42:59.829Z,75.16
2019-04-14T09:43:59.745Z,75.70
2019-04-14T09:44:59.659Z,75.93
2019-04-14T09:45:59.582Z,76.31
2019-04-14T09:46:59.500Z,75.89
2019-04-14T09:47:59.509Z,75.42
2019-04-14T09:48:59.355Z,76.08
2019-04-14T09:49:59.318Z,76.75
2019-04-14T09:51:05.005Z,76.84
2019-04-14T09:51:59.125Z,77.03
2019-04-14T09:52:59.023Z,76.40
2019-04-14T09:53:59.171Z,75.16
2019-04-14T09:54:58.862Z,75.84
2019-04-14T09:55:58.783Z,75.36
2019-04-14T09:56:58.749Z,74.35
2019-04-14T09:57:58.617Z,73.72
2019-04-14T09:58:58.554Z,72.28
2019-04-14T09:59:58.564Z,71.58
2019-04-14T10:00:58.382Z,72.06
2019-04-14T10:01:58.310Z,71.45
2019-04-14T10:02:58.378Z,72.41
2019-04-14T10:03:58.166Z,71.96
2019-04-14T10:04:58.187Z,71.83
2019-04-14T10:05:57.987Z,71.55
2019-04-14T10:06:58.001Z,71.55
2019-04-14T10:07:57.834Z,72.21
2019-04-14T10:08:57.841Z,72.53
2019-04-14T10:09:57.666Z,72.09
2019-04-14T10:10:57.615Z,71.20
2019-04-14T10:11:57.522Z,71.33
2019-04-14T10:12:57.436Z,71.01
2019-04-14T10:13:57.381Z,71.14
2019-04-14T10:14:57.276Z,71.01
2019-04-14T10:15:57.193Z,71.11
2019-04-14T10:16:57.115Z,70.34
2019-04-14T10:17:57.038Z,70.44
2019-04-14T10:18:56.978Z,71.14
2019-04-14T10:19:56.884Z,70.19
2019-04-14T10:20:56.801Z,68.38
2019-04-14T10:21:56.720Z,68.28
2019-04-14T10:22:56.668Z,67.71
2019-04-14T10:23:56.576Z,67.86
2019-04-14T10:24:56.485Z,68.15
2019-04-14T10:25:56.484Z,68.44
2019-04-14T10:26:56.328Z,69.01
2019-04-14T10:27:56.291Z,69.81
2019-04-14T10:28:56.186Z,68.85
2019-04-14T10:29:56.306Z,67.99
2019-04-14T10:30:56.014Z,67.71
2019-04-14T10:31:55.936Z,67.61
2019-04-14T10:32:55.916Z,67.42
2019-04-14T10:33:55.794Z,67.71
2019-04-14T10:34:55.702Z,67.55
2019-04-14T10:35:55.732Z,66.66
2019-04-14T10:36:55.545Z,67.55
2019-04-14T10:37:55.540Z,66.56
2019-04-14T10:38:55.395Z,67.55
2019-04-14T10:39:55.310Z,67.55
2019-04-14T10:40:55.234Z,67.55
2019-04-14T10:41:55.157Z,67.55
2019-04-14T10:42:55.165Z,67.71
2019-04-14T10:43:55.016Z,67.14
2019-04-14T10:44:54.960Z,68.22
2019-04-14T10:45:54.843Z,67.46
2019-04-14T10:46:54.761Z,66.22
2019-04-14T10:47:54.682Z,66.28
2019-04-14T10:48:59.948Z,67.55
2019-04-14T10:49:54.524Z,67.36
2019-04-14T10:50:54.446Z,67.65
2019-04-14T10:51:54.378Z,66.28
2019-04-14T10:52:54.416Z,66.94
2019-04-14T10:53:54.228Z,67.17
2019-04-14T10:54:54.139Z,66.98
2019-04-14T10:55:54.225Z,66.28
2019-04-14T10:56:53.995Z,65.33
2019-04-14T10:57:53.896Z,65.61
2019-04-14T10:58:53.866Z,65.80
2019-04-14T10:59:53.746Z,65.64
2019-04-14T11:00:53.665Z,65.74
2019-04-14T11:01:53.665Z,64.81
2019-04-14T11:02:53.510Z,63.54
2019-04-14T11:03:53.489Z,63.07
2019-04-14T11:04:53.356Z,63.54
2019-04-14T11:05:53.477Z,64.02
2019-04-14T11:06:53.197Z,64.31
2019-04-14T11:07:53.118Z,62.37
2019-04-14T11:08:53.107Z,63.73
2019-04-14T11:09:53.969Z,63.35
2019-04-14T11:10:52.884Z,64.31
2019-04-14T11:11:52.896Z,63.16
2019-04-14T11:12:52.727Z,63.39
2019-04-14T11:13:52.702Z,63.67
2019-04-14T11:14:52.585Z,63.20
2019-04-14T11:15:52.513Z,62.46
2019-04-14T11:16:52.416Z,61.41
2019-04-14T11:17:52.423Z,60.55
2019-04-14T11:18:52.259Z,61.29
2019-04-14T11:19:52.264Z,62.15
2019-04-14T11:20:52.104Z,62.18
2019-04-14T11:21:52.023Z,61.22
2019-04-14T11:23:02.839Z,61.03
2019-04-14T11:23:51.877Z,61.35
2019-04-14T11:24:51.809Z,61.25
2019-04-14T11:25:51.759Z,61.03
2019-04-14T11:26:51.640Z,59.78
2019-04-14T11:27:51.562Z,60.14
2019-04-14T11:28:51.574Z,59.88
2019-04-14T11:29:53.896Z,59.81
2019-04-14T11:30:51.385Z,59.53
2019-04-14T11:31:51.251Z,58.76
2019-04-14T11:32:51.177Z,57.59
2019-04-14T11:33:51.199Z,57.50
2019-04-14T11:34:51.030Z,57.68
2019-04-14T11:35:50.945Z,58.93
2019-04-14T11:36:50.914Z,59.22
2019-04-14T11:37:50.790Z,58.99
2019-04-14T11:38:50.825Z,59.56
2019-04-14T11:39:50.655Z,59.85
2019-04-14T11:40:50.632Z,59.28
2019-04-14T11:41:50.483Z,59.38
2019-04-14T11:42:52.548Z,59.02
2019-04-14T11:43:50.356Z,58.51
2019-04-14T11:44:50.263Z,58.87
2019-04-14T11:45:50.164Z,59.19
2019-04-14T11:46:50.166Z,59.69
2019-04-14T11:47:50.012Z,59.44
2019-04-14T11:48:49.933Z,57.24
2019-04-14T11:49:49.907Z,56.85
2019-04-14T11:50:49.855Z,57.90
2019-04-14T11:51:55.395Z,56.76
2019-04-14T11:52:49.691Z,57.02
2019-04-14T11:53:49.546Z,57.78
2019-04-14T11:54:53.941Z,58.64
2019-04-14T11:55:49.392Z,59.44
2019-04-14T11:56:49.318Z,58.67
2019-04-14T11:57:49.319Z,57.53
2019-04-14T11:58:49.164Z,57.46
2019-04-14T11:59:49.100Z,57.36
2019-04-14T12:00:49.054Z,56.12
2019-04-14T12:01:48.927Z,56.18
2019-04-14T12:02:48.914Z,55.18
2019-04-14T12:03:48.861Z,55.08
2019-04-14T12:04:48.709Z,55.58
2019-04-14T12:05:48.620Z,55.30
2019-04-14T12:06:48.563Z,55.20
2019-04-14T12:07:48.469Z,53.67
2019-04-14T12:08:48.565Z,52.40
2019-04-14T12:09:48.322Z,52.69
2019-04-14T12:10:48.284Z,53.39
2019-04-14T12:11:48.159Z,54.34
2019-04-14T12:12:48.081Z,53.67
2019-04-14T12:13:48.098Z,53.96
2019-04-14T12:14:47.938Z,52.94
2019-04-14T12:15:47.848Z,52.65
2019-04-14T12:16:47.809Z,52.72
2019-04-14T12:17:47.734Z,55.90
2019-04-14T12:18:47.616Z,56.60
2019-04-14T12:19:47.664Z,56.69
2019-04-14T12:20:47.458Z,57.75
2019-04-14T12:21:47.378Z,57.36
2019-04-14T12:22:47.340Z,57.17
2019-04-14T12:23:47.227Z,57.55
2019-04-14T12:24:47.220Z,57.04
2019-04-14T12:25:47.141Z,55.90
2019-04-14T12:26:46.999Z,56.18
2019-04-14T12:27:46.917Z,57.07
2019-04-14T12:28:47.147Z,56.60
2019-04-14T12:29:47.852Z,55.93
2019-04-14T12:30:46.826Z,54.66
2019-04-14T12:31:46.648Z,54.75
2019-04-14T12:32:46.535Z,55.52
2019-04-14T12:33:46.457Z,54.88
2019-04-14T12:34:46.447Z,55.64
2019-04-14T12:35:46.303Z,55.04
2019-04-14T12:36:46.261Z,56.45
2019-04-14T12:37:46.156Z,56.95
2019-04-14T12:38:46.070Z,57.14
2019-04-14T12:39:45.998Z,56.69
2019-04-14T12:40:45.953Z,56.69
2019-04-14T12:41:45.845Z,56.21
2019-04-14T12:42:45.768Z,56.38
2019-04-14T12:43:45.689Z,55.80
2019-04-14T12:44:45.610Z,56.23
2019-04-14T12:45:45.551Z,57.02
2019-04-14T12:46:45.456Z,56.92
2019-04-14T12:47:45.383Z,57.62
2019-04-14T12:48:45.306Z,55.16
2019-04-14T12:49:45.234Z,54.59
2019-04-14T12:50:45.156Z,55.64
2019-04-14T12:51:45.075Z,55.96
2019-04-14T12:52:44.985Z,56.65
2019-04-14T12:53:44.911Z,55.96
2019-04-14T12:54:44.841Z,55.74
2019-04-14T12:55:44.766Z,55.80
2019-04-14T12:56:44.683Z,56.95
2019-04-14T12:57:44.602Z,57.04
2019-04-14T12:58:44.527Z,58.41
2019-04-14T12:59:44.445Z,57.43
2019-04-14T13:00:44.385Z,56.57
2019-04-14T13:01:44.283Z,56.67
2019-04-14T13:02:44.217Z,56.82
2019-04-14T13:03:44.125Z,56.95
2019-04-14T13:04:44.084Z,57.04
2019-04-14T13:05:44.027Z,56.40